עמוד ראשי
METAR-TAF:

METAR-TAF

שדות תעופה :

Kenai, אלסקה, ארצות הברית

קו רוחב: 60-34-23N, קו אורך: 151-14-42W, גובה: 30מטר

תצפית מזג אוויר נוכחית

הדו"ח נערך לפני 21דקות, בשעה 18:53 UTC
רוח 7קשר מכיוון דרום-מערב
טמפרטורת 9 צלסיוס
לחות 93%
לחץ 1019 hPa
ראות: 16.1קילומטר
מעונן בגובה 700רגל

METAR: PAEN 171853Z 22007KT 10SM OVC007 09/08 A3009 RMK AO2 SLP192 T00890078

זמן: 11:14 (19:14 UTC)

תחזית

הדו"ח נערך לפני 1 שעות ו 46דקות, בשעה 17:28 UTC
תחזית בתוקף מ 17 ב 18 UTC עד 18 ב 18 UTC
רוח 10קשר מכיוון דרום-מערב
ראות: 10קילומטר
עננים בינוניים בגובה 800רגל
ערפל במרחב
זמנית מ -
17 ב 18 UTC עד 17 ב 22 UTC
עננים פזורים בגובה 800רגל
מ 17 ב 2200UTC
רוח 14קשר מכיוון דרום-מערב
ראות: 10קילומטר
מעט עננים בגובה 800רגל
מ 18 ב 0400UTC
רוח 17קשר מכיוון דרום/דרום-מערב
ראות: 3.2קילומטר
עננים בינוניים בגובה 500רגל
אד
מ 18 ב 1200UTC
רוח 10קשר מכיוון דרום/דרום-מערב
ראות: 0.8קילומטר
בגובה 200רגל
ערפל,

TAF: PAEN 171728Z 1718/1818 22010KT P6SM VCFG BKN008 TEMPO 1718/1722 SCT008 FM172200 22014KT P6SM FEW008 FM180400 21017KT 2SM BR BKN005 FM181200 20010KT 1/2SM FG VV002

תצפיות ותחזיות מזג אוויר לגבי יותר מ- 4,000 שדות תעופה ברחבי העולם. דוחות METAR ו- TAF.

התחנות הזמינות מסומנות בנקודות צהובות ואדומות על גבי המפה.

העבר את העכבר לנקודה הצבעונית על מנת לראות את שם התחנה.

לאחר מכן, לחץ כדי לראות את תוכן ואת תחזיות מזג האוויר.

כדי לשנות את המפה: לחץ על הכפתורים הירוקים עם הפלוס השחור כדי להתקרב; על הכפתור הירוק עם המקף כדי להתרחק; או בחיצים הירוקים למפות סמוכות.


METAR-TAF: